createdAt,value
2023-04-05T00:03:00.398Z,7.95
2023-04-05T00:07:17.653Z,9.43
2023-04-05T00:11:34.548Z,7.47
2023-04-05T00:15:50.914Z,10.00
2023-04-05T00:20:08.250Z,9.25
2023-04-05T00:24:24.553Z,10.88
2023-04-05T00:28:40.837Z,10.38
2023-04-05T00:32:57.254Z,9.60
2023-04-05T00:37:13.464Z,9.48
2023-04-05T00:41:29.652Z,13.82
2023-04-05T00:45:46.286Z,10.77
2023-04-05T00:50:02.849Z,13.38
2023-04-05T00:54:19.463Z,15.68
2023-04-05T00:58:35.731Z,10.60
2023-04-05T01:03:02.033Z,10.75
2023-04-05T01:07:31.060Z,12.48
2023-04-05T01:11:47.733Z,15.35
2023-04-05T01:16:04.797Z,12.73
2023-04-05T01:20:23.111Z,10.43
2023-04-05T01:24:53.096Z,12.98
2023-04-05T01:29:33.962Z,13.45
2023-04-05T01:34:13.839Z,12.88
2023-04-05T01:38:30.653Z,12.00
2023-04-05T01:42:46.983Z,11.85
2023-04-05T01:47:03.294Z,12.50
2023-04-05T01:51:20.411Z,14.82
2023-04-05T01:55:36.823Z,11.15
2023-04-05T01:59:53.031Z,13.45
2023-04-05T02:04:09.283Z,12.90
2023-04-05T02:08:25.477Z,14.05
2023-04-05T02:12:41.618Z,15.40
2023-04-05T02:16:57.761Z,19.02
2023-04-05T02:21:17.522Z,13.77
2023-04-05T02:25:33.766Z,17.25
2023-04-05T02:29:49.968Z,15.40
2023-04-05T02:34:09.397Z,15.48
2023-04-05T02:38:25.629Z,14.73
2023-04-05T02:42:42.456Z,15.30
2023-04-05T02:46:58.707Z,17.05
2023-04-05T02:51:14.918Z,16.35
2023-04-05T02:55:31.341Z,16.50
2023-04-05T02:59:47.752Z,14.52
2023-04-05T03:04:04.189Z,17.77
2023-04-05T03:08:23.965Z,22.10
2023-04-05T03:12:40.312Z,20.15
2023-04-05T03:16:56.952Z,18.40
2023-04-05T03:21:13.158Z,21.30
2023-04-05T03:25:29.398Z,21.50
2023-04-05T03:29:45.748Z,22.08
2023-04-05T03:34:01.880Z,21.27
2023-04-05T03:38:18.419Z,20.10
2023-04-05T03:42:34.619Z,23.05
2023-04-05T03:46:51.005Z,23.65
2023-04-05T03:51:08.277Z,17.50
2023-04-05T03:55:24.456Z,17.33
2023-04-05T03:59:40.777Z,16.23
2023-04-05T04:03:57.048Z,18.70
2023-04-05T04:08:13.819Z,18.23
2023-04-05T04:12:29.981Z,19.35
2023-04-05T04:16:46.285Z,17.17
2023-04-05T04:21:08.522Z,20.42
2023-04-05T04:25:26.855Z,17.60
2023-04-05T04:29:46.963Z,17.50
2023-04-05T04:34:04.607Z,19.30
2023-04-05T04:38:21.010Z,17.75
2023-04-05T04:42:39.264Z,15.80
2023-04-05T04:46:55.383Z,18.42
2023-04-05T04:51:11.642Z,21.15
2023-04-05T04:55:30.634Z,17.15
2023-04-05T04:59:46.778Z,19.85
2023-04-05T05:04:04.600Z,22.05
2023-04-05T05:08:21.658Z,17.27
2023-04-05T05:12:39.142Z,16.80
2023-04-05T05:16:59.257Z,20.05
2023-04-05T05:21:15.871Z,15.13
2023-04-05T05:25:32.203Z,18.65
2023-04-05T05:29:48.458Z,19.42
2023-04-05T05:34:04.623Z,24.25
2023-04-05T05:38:20.993Z,16.90
2023-04-05T05:42:37.445Z,19.62
2023-04-05T05:46:53.579Z,19.27
2023-04-05T05:51:12.724Z,26.80
2023-04-05T05:55:28.886Z,25.65
2023-04-05T05:59:45.171Z,21.50
2023-04-05T06:04:01.573Z,21.25
2023-04-05T06:08:17.854Z,22.95
2023-04-05T06:12:34.302Z,25.30
2023-04-05T06:16:50.732Z,20.45
2023-04-05T06:21:07.025Z,22.27
2023-04-05T06:25:23.234Z,16.85
2023-04-05T06:29:39.416Z,23.25
2023-04-05T06:33:55.835Z,18.45
2023-04-05T06:38:12.084Z,20.98
2023-04-05T06:42:28.360Z,20.40
2023-04-05T06:46:44.521Z,18.70
2023-04-05T06:51:02.586Z,22.92
2023-04-05T06:55:18.937Z,18.15
2023-04-05T06:59:35.355Z,19.37
2023-04-05T07:03:51.566Z,14.07
2023-04-05T07:08:08.107Z,17.90
2023-04-05T07:12:24.401Z,18.75
2023-04-05T07:16:40.825Z,18.52
2023-04-05T07:21:04.167Z,16.15
2023-04-05T07:25:20.396Z,15.90
2023-04-05T07:29:43.115Z,12.32
2023-04-05T07:34:01.407Z,15.55
2023-04-05T07:38:17.586Z,15.23
2023-04-05T07:42:34.003Z,17.10
2023-04-05T07:46:50.334Z,15.82
2023-04-05T07:51:08.613Z,14.32
2023-04-05T07:55:24.830Z,15.63
2023-04-05T07:59:41.153Z,14.93
2023-04-05T08:03:57.963Z,12.52
2023-04-05T08:08:14.211Z,11.40
2023-04-05T08:12:34.349Z,11.25
2023-04-05T08:16:52.109Z,10.90
2023-04-05T08:21:08.358Z,11.52
2023-04-05T08:25:24.646Z,11.80
2023-04-05T08:29:40.880Z,9.10
2023-04-05T08:33:57.082Z,11.50
2023-04-05T08:38:13.220Z,11.00
2023-04-05T08:42:59.821Z,13.02
2023-04-05T08:47:18.699Z,12.27
2023-04-05T08:51:41.541Z,9.52
2023-04-05T08:56:01.152Z,12.85
2023-04-05T09:00:18.574Z,10.02
2023-04-05T09:04:45.024Z,7.60
2023-04-05T09:09:01.631Z,8.80
2023-04-05T09:13:18.073Z,10.27
2023-04-05T09:17:34.856Z,9.18
2023-04-05T09:22:03.574Z,12.00
2023-04-05T09:26:24.433Z,7.53
2023-04-05T09:30:45.678Z,9.10
2023-04-05T09:35:04.185Z,7.43
2023-04-05T09:39:30.094Z,10.98
2023-04-05T09:43:46.268Z,9.60
2023-04-05T09:48:04.510Z,8.25
2023-04-05T09:52:34.183Z,11.68
2023-04-05T09:56:57.834Z,9.07
2023-04-05T10:01:17.225Z,10.75
2023-04-05T10:05:35.948Z,11.50
2023-04-05T10:09:54.366Z,10.52
2023-04-05T10:14:10.682Z,10.73
2023-04-05T10:18:41.402Z,8.77
2023-04-05T10:23:15.714Z,8.38
2023-04-05T10:27:39.432Z,9.65
2023-04-05T10:32:13.692Z,12.20
2023-04-05T10:36:50.462Z,9.07
2023-04-05T10:41:16.025Z,10.50
2023-04-05T10:45:35.177Z,10.35
2023-04-05T10:49:56.250Z,10.82
2023-04-05T10:54:12.447Z,9.65
2023-04-05T10:58:29.479Z,9.02
2023-04-05T11:02:46.314Z,18.48
2023-04-05T11:07:12.572Z,10.50
2023-04-05T11:11:38.652Z,10.13
2023-04-05T11:16:10.258Z,9.25
2023-04-05T11:20:26.512Z,9.93
2023-04-05T11:24:55.304Z,8.70
2023-04-05T11:29:14.028Z,10.15
2023-04-05T11:33:57.664Z,12.37
2023-04-05T11:38:23.112Z,7.85
2023-04-05T11:42:39.402Z,10.02
2023-04-05T11:46:56.099Z,8.95
2023-04-05T11:51:14.857Z,11.52
2023-04-05T11:55:31.089Z,11.15
2023-04-05T11:59:51.625Z,9.05
2023-04-05T12:04:08.478Z,8.25
2023-04-05T12:08:39.692Z,10.50
2023-04-05T12:12:55.984Z,9.25
2023-04-05T12:17:12.208Z,10.13
2023-04-05T12:21:28.757Z,9.73
2023-04-05T12:25:48.767Z,8.80
2023-04-05T12:30:14.826Z,9.55
2023-04-05T12:34:31.150Z,9.15
2023-04-05T12:38:48.386Z,9.50
2023-04-05T12:43:07.562Z,7.93
2023-04-05T12:47:24.188Z,8.43
2023-04-05T12:51:46.567Z,7.12
2023-04-05T12:56:07.148Z,9.82
2023-04-05T13:00:27.909Z,6.57
2023-04-05T13:04:44.248Z,5.78
2023-04-05T13:09:00.471Z,5.43
2023-04-05T13:13:17.721Z,7.28
2023-04-05T13:17:33.958Z,5.22
2023-04-05T13:21:50.218Z,6.45
2023-04-05T13:26:08.812Z,8.57
2023-04-05T13:30:25.112Z,6.82
2023-04-05T13:34:43.332Z,5.95
2023-04-05T13:38:59.509Z,7.50
2023-04-05T13:43:15.775Z,7.05
2023-04-05T13:47:34.134Z,6.50
2023-04-05T13:51:50.460Z,10.90
2023-04-05T13:56:07.163Z,5.95
2023-04-05T14:00:25.526Z,4.00
2023-04-05T14:04:44.811Z,5.93
2023-04-05T14:09:01.065Z,5.07
2023-04-05T14:13:17.883Z,6.70
2023-04-05T14:17:34.235Z,8.38
2023-04-05T14:21:51.250Z,7.50
2023-04-05T14:26:07.509Z,5.22
2023-04-05T14:30:25.726Z,5.97
2023-04-05T14:34:41.849Z,7.47
2023-04-05T14:38:58.114Z,6.62
2023-04-05T14:43:16.459Z,9.93
2023-04-05T14:47:32.715Z,6.03
2023-04-05T14:51:49.063Z,5.10
2023-04-05T14:56:05.660Z,5.87
2023-04-05T15:00:24.032Z,6.57
2023-04-05T15:04:41.479Z,6.35
2023-04-05T15:08:59.723Z,8.05
2023-04-05T15:13:17.997Z,4.00
2023-04-05T15:17:34.299Z,7.70
2023-04-05T15:21:51.150Z,9.82
2023-04-05T15:26:07.379Z,6.93
2023-04-05T15:30:23.630Z,8.52
2023-04-05T15:34:41.297Z,5.93
2023-04-05T15:38:57.497Z,7.22
2023-04-05T15:43:13.649Z,6.37
2023-04-05T15:47:32.025Z,5.40
2023-04-05T15:51:48.313Z,7.12
2023-04-05T15:56:06.633Z,9.45
2023-04-05T16:00:23.525Z,5.05
2023-04-05T16:04:39.892Z,6.43
2023-04-05T16:08:56.235Z,7.37
2023-04-05T16:13:12.567Z,4.47
2023-04-05T16:17:28.855Z,3.55
2023-04-05T16:21:45.195Z,6.18
2023-04-05T16:26:03.718Z,4.78
2023-04-05T16:30:20.106Z,6.15
2023-04-05T16:34:36.592Z,5.12
2023-04-05T16:38:52.772Z,5.25
2023-04-05T16:43:08.962Z,7.87
2023-04-05T16:47:25.290Z,4.30
2023-04-05T16:51:41.916Z,5.85
2023-04-05T16:55:58.219Z,5.40
2023-04-05T17:00:15.024Z,7.95
2023-04-05T17:04:31.732Z,6.70
2023-04-05T17:08:48.107Z,7.60
2023-04-05T17:13:04.559Z,6.03
2023-04-05T17:17:20.791Z,6.10
2023-04-05T17:21:39.190Z,9.32
2023-04-05T17:25:55.429Z,8.35
2023-04-05T17:30:12.177Z,8.13
2023-04-05T17:34:30.406Z,11.25
2023-04-05T17:38:46.601Z,13.50
2023-04-05T17:43:02.944Z,12.70
2023-04-05T17:47:19.181Z,25.20
2023-04-05T17:51:35.504Z,19.98
2023-04-05T17:55:51.737Z,33.70
2023-04-05T18:00:09.171Z,34.85
2023-04-05T18:04:26.372Z,16.85
2023-04-05T18:08:42.600Z,23.90
2023-04-05T18:12:58.852Z,15.57
2023-04-05T18:17:15.064Z,14.05
2023-04-05T18:21:31.749Z,11.18
2023-04-05T18:25:48.427Z,13.30
2023-04-05T18:30:05.513Z,9.50
2023-04-05T18:34:21.920Z,11.25
2023-04-05T18:38:38.187Z,14.13
2023-04-05T18:42:54.441Z,14.07
2023-04-05T18:47:10.779Z,15.95
2023-04-05T18:51:27.428Z,18.35
2023-04-05T18:55:43.631Z,15.75
2023-04-05T19:00:00.246Z,15.55
2023-04-05T19:04:16.570Z,16.25
2023-04-05T19:08:33.239Z,17.02
2023-04-05T19:12:49.514Z,13.70
2023-04-05T19:17:07.024Z,17.80
2023-04-05T19:21:24.933Z,12.82
2023-04-05T19:25:41.205Z,17.67
2023-04-05T19:29:58.027Z,15.05
2023-04-05T19:34:14.225Z,17.50
2023-04-05T19:38:30.628Z,11.85
2023-04-05T19:42:47.820Z,18.77
2023-04-05T19:47:12.573Z,16.92
2023-04-05T19:51:29.124Z,14.80
2023-04-05T19:55:45.547Z,11.93
2023-04-05T20:00:01.712Z,28.58
2023-04-05T20:04:19.726Z,27.77
2023-04-05T20:08:46.754Z,14.55
2023-04-05T20:13:02.943Z,12.30
2023-04-05T20:17:19.366Z,15.18
2023-04-05T20:21:37.801Z,9.82
2023-04-05T20:25:54.299Z,13.38
2023-04-05T20:30:11.978Z,10.13
2023-04-05T20:34:38.286Z,12.07
2023-04-05T20:38:54.565Z,10.63
2023-04-05T20:43:10.946Z,14.77
2023-04-05T20:47:27.154Z,12.23
2023-04-05T20:51:43.370Z,12.35
2023-04-05T20:56:00.584Z,12.65
2023-04-05T21:00:17.119Z,11.55
2023-04-05T21:04:34.911Z,13.50
2023-04-05T21:08:51.313Z,13.18
2023-04-05T21:13:07.568Z,11.75
2023-04-05T21:17:23.786Z,11.52
2023-04-05T21:21:39.982Z,10.55
2023-04-05T21:25:59.529Z,11.68
2023-04-05T21:30:16.758Z,9.63
2023-04-05T21:34:33.021Z,9.65
2023-04-05T21:38:49.244Z,12.50
2023-04-05T21:43:05.675Z,9.32
2023-04-05T21:47:21.904Z,10.02
2023-04-05T21:51:38.052Z,13.40
2023-04-05T21:55:54.567Z,15.55
2023-04-05T22:00:12.063Z,18.08
2023-04-05T22:04:29.349Z,15.77
2023-04-05T22:08:45.635Z,11.85
2023-04-05T22:13:02.181Z,10.95
2023-04-05T22:17:18.816Z,11.57
2023-04-05T22:21:35.039Z,11.63
2023-04-05T22:25:53.358Z,10.50
2023-04-05T22:30:10.062Z,10.68
2023-04-05T22:34:26.438Z,14.57
2023-04-05T22:38:42.698Z,17.05
2023-04-05T22:42:58.961Z,11.82
2023-04-05T22:47:15.301Z,11.75
2023-04-05T22:51:31.890Z,10.27
2023-04-05T22:55:48.137Z,11.50
2023-04-05T23:00:06.195Z,16.50
2023-04-05T23:04:22.383Z,14.68
2023-04-05T23:08:38.537Z,11.30
2023-04-05T23:12:54.734Z,12.90
2023-04-05T23:17:11.747Z,13.40
2023-04-05T23:21:28.028Z,15.57
2023-04-05T23:25:44.181Z,17.08
2023-04-05T23:30:00.384Z,18.52
2023-04-05T23:34:17.058Z,11.05
2023-04-05T23:38:33.239Z,13.10
2023-04-05T23:42:49.424Z,10.63
2023-04-05T23:47:06.477Z,12.65
2023-04-05T23:51:22.961Z,15.38
2023-04-05T23:55:40.788Z,15.18
2023-04-05T23:59:57.034Z,12.63
